sensor_id;sensor_type;location;lat;lon;timestamp;P1;durP1;ratioP1;P2;durP2;ratioP2
5604;SDS011;9297;47.258;11.362;2023-11-19T00:01:40;4.07;;;3.77;;
5604;SDS011;9297;47.258;11.362;2023-11-19T00:04:07;4.17;;;3.00;;
5604;SDS011;9297;47.258;11.362;2023-11-19T00:06:35;4.97;;;3.20;;
5604;SDS011;9297;47.258;11.362;2023-11-19T00:09:02;3.97;;;3.67;;
5604;SDS011;9297;47.258;11.362;2023-11-19T00:11:29;3.73;;;3.47;;
5604;SDS011;9297;47.258;11.362;2023-11-19T00:13:58;4.20;;;3.23;;
5604;SDS011;9297;47.258;11.362;2023-11-19T00:16:25;3.77;;;3.53;;
5604;SDS011;9297;47.258;11.362;2023-11-19T00:18:53;3.77;;;3.57;;
5604;SDS011;9297;47.258;11.362;2023-11-19T00:21:20;3.87;;;3.57;;
5604;SDS011;9297;47.258;11.362;2023-11-19T00:23:47;4.60;;;4.20;;
5604;SDS011;9297;47.258;11.362;2023-11-19T00:26:14;4.23;;;3.83;;
5604;SDS011;9297;47.258;11.362;2023-11-19T00:28:41;4.17;;;3.87;;
5604;SDS011;9297;47.258;11.362;2023-11-19T00:31:10;3.70;;;3.50;;
5604;SDS011;9297;47.258;11.362;2023-11-19T00:33:38;3.10;;;2.90;;
5604;SDS011;9297;47.258;11.362;2023-11-19T00:36:16;3.40;;;3.00;;
5604;SDS011;9297;47.258;11.362;2023-11-19T00:38:43;2.70;;;2.50;;
5604;SDS011;9297;47.258;11.362;2023-11-19T00:41:10;3.33;;;3.13;;
5604;SDS011;9297;47.258;11.362;2023-11-19T00:43:37;2.63;;;2.43;;
5604;SDS011;9297;47.258;11.362;2023-11-19T00:46:06;3.10;;;2.90;;
5604;SDS011;9297;47.258;11.362;2023-11-19T00:48:35;3.43;;;3.03;;
5604;SDS011;9297;47.258;11.362;2023-11-19T00:51:03;3.87;;;3.43;;
5604;SDS011;9297;47.258;11.362;2023-11-19T00:53:30;3.50;;;3.30;;
5604;SDS011;9297;47.258;11.362;2023-11-19T00:55:58;2.97;;;2.77;;
5604;SDS011;9297;47.258;11.362;2023-11-19T00:58:25;3.77;;;3.57;;
5604;SDS011;9297;47.258;11.362;2023-11-19T01:00:55;3.13;;;2.90;;
5604;SDS011;9297;47.258;11.362;2023-11-19T01:03:22;3.83;;;3.53;;
5604;SDS011;9297;47.258;11.362;2023-11-19T01:05:50;4.03;;;3.73;;
5604;SDS011;9297;47.258;11.362;2023-11-19T01:08:17;4.07;;;3.77;;
5604;SDS011;9297;47.258;11.362;2023-11-19T01:10:45;4.07;;;3.53;;
5604;SDS011;9297;47.258;11.362;2023-11-19T01:13:12;4.70;;;4.30;;
5604;SDS011;9297;47.258;11.362;2023-11-19T01:15:40;5.27;;;3.90;;
5604;SDS011;9297;47.258;11.362;2023-11-19T01:18:07;4.60;;;4.20;;
5604;SDS011;9297;47.258;11.362;2023-11-19T01:20:34;3.87;;;3.60;;
5604;SDS011;9297;47.258;11.362;2023-11-19T01:23:02;4.17;;;3.77;;
5604;SDS011;9297;47.258;11.362;2023-11-19T01:25:29;3.97;;;3.57;;
5604;SDS011;9297;47.258;11.362;2023-11-19T01:27:59;4.17;;;3.80;;
5604;SDS011;9297;47.258;11.362;2023-11-19T01:30:29;4.33;;;3.97;;
5604;SDS011;9297;47.258;11.362;2023-11-19T01:32:58;4.03;;;3.73;;
5604;SDS011;9297;47.258;11.362;2023-11-19T01:35:25;3.87;;;3.57;;
5604;SDS011;9297;47.258;11.362;2023-11-19T01:37:53;3.80;;;3.47;;
5604;SDS011;9297;47.258;11.362;2023-11-19T01:40:22;3.93;;;3.63;;
5604;SDS011;9297;47.258;11.362;2023-11-19T01:42:49;4.50;;;4.03;;
5604;SDS011;9297;47.258;11.362;2023-11-19T01:45:21;4.27;;;3.97;;
5604;SDS011;9297;47.258;11.362;2023-11-19T01:47:53;4.87;;;4.47;;
5604;SDS011;9297;47.258;11.362;2023-11-19T01:50:21;4.40;;;4.00;;
5604;SDS011;9297;47.258;11.362;2023-11-19T01:52:48;4.07;;;3.77;;
5604;SDS011;9297;47.258;11.362;2023-11-19T01:55:16;4.20;;;3.80;;
5604;SDS011;9297;47.258;11.362;2023-11-19T01:57:45;4.63;;;4.23;;
5604;SDS011;9297;47.258;11.362;2023-11-19T02:00:13;4.20;;;3.90;;
5604;SDS011;9297;47.258;11.362;2023-11-19T02:02:40;4.10;;;3.80;;
5604;SDS011;9297;47.258;11.362;2023-11-19T02:05:09;4.20;;;3.83;;
5604;SDS011;9297;47.258;11.362;2023-11-19T02:07:37;4.60;;;4.30;;
5604;SDS011;9297;47.258;11.362;2023-11-19T02:10:04;5.60;;;4.40;;
5604;SDS011;9297;47.258;11.362;2023-11-19T02:12:32;4.20;;;3.90;;
5604;SDS011;9297;47.258;11.362;2023-11-19T02:15:01;4.27;;;3.97;;
5604;SDS011;9297;47.258;11.362;2023-11-19T02:17:29;4.17;;;3.87;;
5604;SDS011;9297;47.258;11.362;2023-11-19T02:19:57;4.07;;;3.77;;
5604;SDS011;9297;47.258;11.362;2023-11-19T02:22:24;4.33;;;3.93;;
5604;SDS011;9297;47.258;11.362;2023-11-19T02:24:53;4.30;;;3.90;;
5604;SDS011;9297;47.258;11.362;2023-11-19T02:27:28;4.97;;;4.57;;
5604;SDS011;9297;47.258;11.362;2023-11-19T02:30:05;4.30;;;4.00;;
5604;SDS011;9297;47.258;11.362;2023-11-19T02:32:33;4.37;;;3.97;;
5604;SDS011;9297;47.258;11.362;2023-11-19T02:35:01;4.87;;;4.47;;
5604;SDS011;9297;47.258;11.362;2023-11-19T02:37:31;4.30;;;4.00;;
5604;SDS011;9297;47.258;11.362;2023-11-19T02:39:59;3.63;;;3.33;;
5604;SDS011;9297;47.258;11.362;2023-11-19T02:42:26;3.60;;;3.40;;
5604;SDS011;9297;47.258;11.362;2023-11-19T02:44:54;3.80;;;3.50;;
5604;SDS011;9297;47.258;11.362;2023-11-19T02:47:21;3.50;;;3.30;;
5604;SDS011;9297;47.258;11.362;2023-11-19T02:49:48;3.90;;;3.57;;
5604;SDS011;9297;47.258;11.362;2023-11-19T02:52:15;3.90;;;3.67;;
5604;SDS011;9297;47.258;11.362;2023-11-19T02:54:43;3.73;;;3.47;;
5604;SDS011;9297;47.258;11.362;2023-11-19T02:57:11;4.07;;;3.67;;
5604;SDS011;9297;47.258;11.362;2023-11-19T02:59:48;4.03;;;3.70;;
5604;SDS011;9297;47.258;11.362;2023-11-19T03:02:16;3.67;;;3.47;;
5604;SDS011;9297;47.258;11.362;2023-11-19T03:04:44;4.10;;;3.80;;
5604;SDS011;9297;47.258;11.362;2023-11-19T03:07:11;4.50;;;4.10;;
5604;SDS011;9297;47.258;11.362;2023-11-19T03:09:38;4.13;;;3.73;;
5604;SDS011;9297;47.258;11.362;2023-11-19T03:12:06;4.60;;;4.20;;
5604;SDS011;9297;47.258;11.362;2023-11-19T03:14:34;4.23;;;3.30;;
5604;SDS011;9297;47.258;11.362;2023-11-19T03:17:01;4.40;;;4.03;;
5604;SDS011;9297;47.258;11.362;2023-11-19T03:19:30;3.87;;;3.57;;
5604;SDS011;9297;47.258;11.362;2023-11-19T03:21:57;4.33;;;4.00;;
5604;SDS011;9297;47.258;11.362;2023-11-19T03:24:24;3.97;;;3.67;;
5604;SDS011;9297;47.258;11.362;2023-11-19T03:26:51;4.07;;;3.77;;
5604;SDS011;9297;47.258;11.362;2023-11-19T03:29:18;4.37;;;3.60;;
5604;SDS011;9297;47.258;11.362;2023-11-19T03:31:46;4.87;;;3.30;;
5604;SDS011;9297;47.258;11.362;2023-11-19T03:34:13;4.63;;;3.87;;
5604;SDS011;9297;47.258;11.362;2023-11-19T03:36:41;4.10;;;3.80;;
5604;SDS011;9297;47.258;11.362;2023-11-19T03:39:08;4.13;;;3.70;;
5604;SDS011;9297;47.258;11.362;2023-11-19T03:41:35;4.93;;;4.23;;
5604;SDS011;9297;47.258;11.362;2023-11-19T03:44:05;4.20;;;3.80;;
5604;SDS011;9297;47.258;11.362;2023-11-19T03:46:33;4.10;;;3.80;;
5604;SDS011;9297;47.258;11.362;2023-11-19T03:49:00;3.67;;;3.37;;
5604;SDS011;9297;47.258;11.362;2023-11-19T03:51:27;3.37;;;3.17;;
5604;SDS011;9297;47.258;11.362;2023-11-19T03:53:55;4.83;;;4.33;;
5604;SDS011;9297;47.258;11.362;2023-11-19T03:56:23;4.40;;;4.00;;
5604;SDS011;9297;47.258;11.362;2023-11-19T03:58:50;3.67;;;3.37;;
5604;SDS011;9297;47.258;11.362;2023-11-19T04:01:17;3.43;;;3.13;;
5604;SDS011;9297;47.258;11.362;2023-11-19T04:03:45;3.63;;;3.23;;
5604;SDS011;9297;47.258;11.362;2023-11-19T04:06:15;3.53;;;3.33;;
5604;SDS011;9297;47.258;11.362;2023-11-19T04:08:42;4.00;;;3.70;;
5604;SDS011;9297;47.258;11.362;2023-11-19T04:11:11;4.10;;;3.80;;
5604;SDS011;9297;47.258;11.362;2023-11-19T04:13:38;4.03;;;3.73;;
5604;SDS011;9297;47.258;11.362;2023-11-19T04:16:05;4.70;;;4.30;;
5604;SDS011;9297;47.258;11.362;2023-11-19T04:18:33;4.23;;;3.87;;
5604;SDS011;9297;47.258;11.362;2023-11-19T04:21:00;4.40;;;4.03;;
5604;SDS011;9297;47.258;11.362;2023-11-19T04:23:27;4.83;;;4.43;;
5604;SDS011;9297;47.258;11.362;2023-11-19T04:25:54;4.17;;;3.77;;
5604;SDS011;9297;47.258;11.362;2023-11-19T04:28:23;6.10;;;4.20;;
5604;SDS011;9297;47.258;11.362;2023-11-19T04:30:50;4.47;;;4.07;;
5604;SDS011;9297;47.258;11.362;2023-11-19T04:33:17;4.03;;;3.73;;
5604;SDS011;9297;47.258;11.362;2023-11-19T04:35:44;4.27;;;3.87;;
5604;SDS011;9297;47.258;11.362;2023-11-19T04:38:11;4.87;;;4.33;;
5604;SDS011;9297;47.258;11.362;2023-11-19T04:40:38;4.20;;;3.90;;
5604;SDS011;9297;47.258;11.362;2023-11-19T04:43:05;4.70;;;4.30;;
5604;SDS011;9297;47.258;11.362;2023-11-19T04:45:34;3.93;;;3.63;;
5604;SDS011;9297;47.258;11.362;2023-11-19T04:48:01;3.97;;;3.70;;
5604;SDS011;9297;47.258;11.362;2023-11-19T04:50:28;3.87;;;3.50;;
5604;SDS011;9297;47.258;11.362;2023-11-19T04:52:55;4.00;;;3.70;;
5604;SDS011;9297;47.258;11.362;2023-11-19T04:55:26;3.97;;;3.33;;
5604;SDS011;9297;47.258;11.362;2023-11-19T04:57:53;4.47;;;4.07;;
5604;SDS011;9297;47.258;11.362;2023-11-19T05:00:21;6.00;;;5.50;;
5604;SDS011;9297;47.258;11.362;2023-11-19T05:02:50;3.70;;;3.40;;
5604;SDS011;9297;47.258;11.362;2023-11-19T05:05:18;3.80;;;3.60;;
5604;SDS011;9297;47.258;11.362;2023-11-19T05:07:45;3.13;;;2.93;;
5604;SDS011;9297;47.258;11.362;2023-11-19T05:10:12;4.53;;;4.13;;
5604;SDS011;9297;47.258;11.362;2023-11-19T05:12:39;4.20;;;3.90;;
5604;SDS011;9297;47.258;11.362;2023-11-19T05:15:07;4.23;;;3.50;;
5604;SDS011;9297;47.258;11.362;2023-11-19T05:17:34;4.20;;;3.90;;
5604;SDS011;9297;47.258;11.362;2023-11-19T05:20:03;3.63;;;3.40;;
5604;SDS011;9297;47.258;11.362;2023-11-19T05:22:31;4.73;;;4.33;;
5604;SDS011;9297;47.258;11.362;2023-11-19T05:24:58;4.47;;;4.07;;
5604;SDS011;9297;47.258;11.362;2023-11-19T05:27:25;3.73;;;3.53;;
5604;SDS011;9297;47.258;11.362;2023-11-19T05:29:53;4.50;;;4.10;;
5604;SDS011;9297;47.258;11.362;2023-11-19T05:32:20;4.30;;;3.97;;
5604;SDS011;9297;47.258;11.362;2023-11-19T05:34:47;4.40;;;4.00;;
5604;SDS011;9297;47.258;11.362;2023-11-19T05:37:19;5.07;;;4.67;;
5604;SDS011;9297;47.258;11.362;2023-11-19T05:39:46;4.57;;;4.17;;
5604;SDS011;9297;47.258;11.362;2023-11-19T05:42:13;4.30;;;4.00;;
5604;SDS011;9297;47.258;11.362;2023-11-19T05:44:41;4.07;;;3.77;;
5604;SDS011;9297;47.258;11.362;2023-11-19T05:47:08;4.00;;;3.70;;
5604;SDS011;9297;47.258;11.362;2023-11-19T05:49:35;4.07;;;3.73;;
5604;SDS011;9297;47.258;11.362;2023-11-19T05:52:02;3.80;;;3.50;;
5604;SDS011;9297;47.258;11.362;2023-11-19T05:54:31;4.20;;;3.80;;
5604;SDS011;9297;47.258;11.362;2023-11-19T05:56:58;3.80;;;3.60;;
5604;SDS011;9297;47.258;11.362;2023-11-19T05:59:25;4.17;;;3.93;;
5604;SDS011;9297;47.258;11.362;2023-11-19T06:01:52;4.07;;;3.77;;
5604;SDS011;9297;47.258;11.362;2023-11-19T06:04:20;3.77;;;3.47;;
5604;SDS011;9297;47.258;11.362;2023-11-19T06:06:47;3.97;;;3.53;;
5604;SDS011;9297;47.258;11.362;2023-11-19T06:09:14;4.40;;;3.53;;
5604;SDS011;9297;47.258;11.362;2023-11-19T06:11:42;5.10;;;4.70;;
5604;SDS011;9297;47.258;11.362;2023-11-19T06:14:09;5.10;;;4.77;;
5604;SDS011;9297;47.258;11.362;2023-11-19T06:16:37;4.30;;;3.97;;
5604;SDS011;9297;47.258;11.362;2023-11-19T06:19:04;5.90;;;5.40;;
5604;SDS011;9297;47.258;11.362;2023-11-19T06:21:34;4.63;;;4.30;;
5604;SDS011;9297;47.258;11.362;2023-11-19T06:24:03;4.60;;;4.23;;
5604;SDS011;9297;47.258;11.362;2023-11-19T06:26:31;4.47;;;4.07;;
5604;SDS011;9297;47.258;11.362;2023-11-19T06:28:59;4.87;;;4.50;;
5604;SDS011;9297;47.258;11.362;2023-11-19T06:31:26;4.80;;;4.40;;
5604;SDS011;9297;47.258;11.362;2023-11-19T06:33:53;4.80;;;4.30;;
5604;SDS011;9297;47.258;11.362;2023-11-19T06:36:21;5.07;;;4.60;;
5604;SDS011;9297;47.258;11.362;2023-11-19T06:38:48;4.53;;;4.13;;
5604;SDS011;9297;47.258;11.362;2023-11-19T06:41:15;4.93;;;4.53;;
5604;SDS011;9297;47.258;11.362;2023-11-19T06:43:42;5.83;;;4.60;;
5604;SDS011;9297;47.258;11.362;2023-11-19T06:46:16;4.43;;;4.13;;
5604;SDS011;9297;47.258;11.362;2023-11-19T06:48:44;4.47;;;4.07;;
5604;SDS011;9297;47.258;11.362;2023-11-19T06:51:11;4.00;;;3.63;;
5604;SDS011;9297;47.258;11.362;2023-11-19T06:53:38;4.70;;;4.30;;
5604;SDS011;9297;47.258;11.362;2023-11-19T06:56:06;5.00;;;4.60;;
5604;SDS011;9297;47.258;11.362;2023-11-19T06:58:44;3.93;;;3.53;;
5604;SDS011;9297;47.258;11.362;2023-11-19T07:01:11;4.20;;;3.90;;
5604;SDS011;9297;47.258;11.362;2023-11-19T07:03:40;5.50;;;4.43;;
5604;SDS011;9297;47.258;11.362;2023-11-19T07:06:07;5.43;;;4.37;;
5604;SDS011;9297;47.258;11.362;2023-11-19T07:08:34;4.73;;;4.33;;
5604;SDS011;9297;47.258;11.362;2023-11-19T07:11:01;6.50;;;5.03;;
5604;SDS011;9297;47.258;11.362;2023-11-19T07:13:28;4.80;;;4.33;;
5604;SDS011;9297;47.258;11.362;2023-11-19T07:15:55;4.17;;;3.60;;
5604;SDS011;9297;47.258;11.362;2023-11-19T07:18:23;4.10;;;3.70;;
5604;SDS011;9297;47.258;11.362;2023-11-19T07:20:54;4.03;;;3.73;;
5604;SDS011;9297;47.258;11.362;2023-11-19T07:23:21;4.27;;;3.87;;
5604;SDS011;9297;47.258;11.362;2023-11-19T07:25:48;4.13;;;3.73;;
5604;SDS011;9297;47.258;11.362;2023-11-19T07:28:16;4.10;;;3.80;;
5604;SDS011;9297;47.258;11.362;2023-11-19T07:30:43;4.17;;;3.80;;
5604;SDS011;9297;47.258;11.362;2023-11-19T07:33:10;4.13;;;3.83;;
5604;SDS011;9297;47.258;11.362;2023-11-19T07:35:37;3.47;;;3.27;;
5604;SDS011;9297;47.258;11.362;2023-11-19T07:38:05;4.10;;;3.70;;
5604;SDS011;9297;47.258;11.362;2023-11-19T07:40:33;3.87;;;3.50;;
5604;SDS011;9297;47.258;11.362;2023-11-19T07:43:00;4.20;;;3.90;;
5604;SDS011;9297;47.258;11.362;2023-11-19T07:45:27;4.40;;;4.00;;
5604;SDS011;9297;47.258;11.362;2023-11-19T07:47:54;4.33;;;4.03;;
5604;SDS011;9297;47.258;11.362;2023-11-19T07:50:21;4.80;;;4.40;;
5604;SDS011;9297;47.258;11.362;2023-11-19T07:52:49;5.33;;;4.57;;
5604;SDS011;9297;47.258;11.362;2023-11-19T07:55:17;4.30;;;3.90;;
5604;SDS011;9297;47.258;11.362;2023-11-19T07:57:44;5.63;;;4.20;;
5604;SDS011;9297;47.258;11.362;2023-11-19T08:00:12;4.37;;;3.97;;
5604;SDS011;9297;47.258;11.362;2023-11-19T08:02:40;4.03;;;3.73;;
5604;SDS011;9297;47.258;11.362;2023-11-19T08:05:07;4.30;;;3.90;;
5604;SDS011;9297;47.258;11.362;2023-11-19T08:07:35;4.47;;;4.07;;
5604;SDS011;9297;47.258;11.362;2023-11-19T08:10:02;4.17;;;3.70;;
5604;SDS011;9297;47.258;11.362;2023-11-19T08:12:31;3.90;;;3.60;;
5604;SDS011;9297;47.258;11.362;2023-11-19T08:14:58;4.10;;;3.70;;
5604;SDS011;9297;47.258;11.362;2023-11-19T08:17:26;4.30;;;4.00;;
5604;SDS011;9297;47.258;11.362;2023-11-19T08:19:53;4.27;;;3.87;;
5604;SDS011;9297;47.258;11.362;2023-11-19T08:22:20;4.43;;;4.13;;
5604;SDS011;9297;47.258;11.362;2023-11-19T08:24:47;4.20;;;3.90;;
5604;SDS011;9297;47.258;11.362;2023-11-19T08:27:14;4.43;;;4.13;;
5604;SDS011;9297;47.258;11.362;2023-11-19T08:29:43;4.67;;;4.27;;
5604;SDS011;9297;47.258;11.362;2023-11-19T08:32:10;5.00;;;4.50;;
5604;SDS011;9297;47.258;11.362;2023-11-19T08:34:37;4.60;;;4.20;;
5604;SDS011;9297;47.258;11.362;2023-11-19T08:37:04;5.87;;;3.90;;
5604;SDS011;9297;47.258;11.362;2023-11-19T08:39:31;4.70;;;4.30;;
5604;SDS011;9297;47.258;11.362;2023-11-19T08:41:58;3.73;;;3.40;;
5604;SDS011;9297;47.258;11.362;2023-11-19T08:44:25;3.07;;;2.87;;
5604;SDS011;9297;47.258;11.362;2023-11-19T08:46:54;3.30;;;3.07;;
5604;SDS011;9297;47.258;11.362;2023-11-19T08:49:21;3.67;;;3.37;;
5604;SDS011;9297;47.258;11.362;2023-11-19T08:51:48;3.83;;;3.43;;
5604;SDS011;9297;47.258;11.362;2023-11-19T08:54:15;4.17;;;3.13;;
5604;SDS011;9297;47.258;11.362;2023-11-19T08:56:43;3.50;;;3.20;;
5604;SDS011;9297;47.258;11.362;2023-11-19T08:59:10;3.73;;;3.43;;
5604;SDS011;9297;47.258;11.362;2023-11-19T09:01:37;3.83;;;3.47;;
5604;SDS011;9297;47.258;11.362;2023-11-19T09:04:06;4.40;;;4.00;;
5604;SDS011;9297;47.258;11.362;2023-11-19T09:06:34;3.80;;;3.43;;
5604;SDS011;9297;47.258;11.362;2023-11-19T09:09:02;3.43;;;3.13;;
5604;SDS011;9297;47.258;11.362;2023-11-19T09:11:32;3.30;;;3.10;;
5604;SDS011;9297;47.258;11.362;2023-11-19T09:13:59;3.53;;;3.33;;
5604;SDS011;9297;47.258;11.362;2023-11-19T09:16:26;2.93;;;2.73;;
5604;SDS011;9297;47.258;11.362;2023-11-19T09:18:54;3.13;;;2.93;;
5604;SDS011;9297;47.258;11.362;2023-11-19T09:21:22;3.67;;;2.93;;
5604;SDS011;9297;47.258;11.362;2023-11-19T09:23:49;2.37;;;2.27;;
5604;SDS011;9297;47.258;11.362;2023-11-19T09:26:16;2.23;;;2.13;;
5604;SDS011;9297;47.258;11.362;2023-11-19T09:28:44;3.03;;;2.87;;
5604;SDS011;9297;47.258;11.362;2023-11-19T09:31:14;3.27;;;2.97;;
5604;SDS011;9297;47.258;11.362;2023-11-19T09:33:42;2.87;;;2.67;;
5604;SDS011;9297;47.258;11.362;2023-11-19T09:36:11;3.20;;;3.00;;
5604;SDS011;9297;47.258;11.362;2023-11-19T09:38:40;3.07;;;2.87;;
5604;SDS011;9297;47.258;11.362;2023-11-19T09:41:09;2.70;;;2.50;;
5604;SDS011;9297;47.258;11.362;2023-11-19T09:43:36;3.17;;;2.97;;
5604;SDS011;9297;47.258;11.362;2023-11-19T09:46:05;4.03;;;3.73;;
5604;SDS011;9297;47.258;11.362;2023-11-19T09:48:33;3.63;;;3.37;;
5604;SDS011;9297;47.258;11.362;2023-11-19T09:51:01;4.23;;;3.43;;
5604;SDS011;9297;47.258;11.362;2023-11-19T09:53:28;4.17;;;3.30;;
5604;SDS011;9297;47.258;11.362;2023-11-19T09:55:57;3.67;;;3.37;;
5604;SDS011;9297;47.258;11.362;2023-11-19T09:58:25;4.10;;;3.73;;
5604;SDS011;9297;47.258;11.362;2023-11-19T10:00:53;4.03;;;3.70;;
5604;SDS011;9297;47.258;11.362;2023-11-19T10:03:40;3.93;;;3.30;;
5604;SDS011;9297;47.258;11.362;2023-11-19T10:06:08;2.93;;;2.77;;
5604;SDS011;9297;47.258;11.362;2023-11-19T10:08:37;3.43;;;3.23;;
5604;SDS011;9297;47.258;11.362;2023-11-19T10:11:06;3.10;;;2.90;;
5604;SDS011;9297;47.258;11.362;2023-11-19T10:13:33;3.23;;;3.03;;
5604;SDS011;9297;47.258;11.362;2023-11-19T10:16:03;3.77;;;3.47;;
5604;SDS011;9297;47.258;11.362;2023-11-19T10:18:31;3.03;;;2.83;;
5604;SDS011;9297;47.258;11.362;2023-11-19T10:20:58;2.67;;;2.53;;
5604;SDS011;9297;47.258;11.362;2023-11-19T10:23:25;2.47;;;2.30;;
5604;SDS011;9297;47.258;11.362;2023-11-19T10:25:52;2.83;;;2.63;;
5604;SDS011;9297;47.258;11.362;2023-11-19T10:28:21;3.00;;;2.80;;
5604;SDS011;9297;47.258;11.362;2023-11-19T10:30:48;2.43;;;2.33;;
5604;SDS011;9297;47.258;11.362;2023-11-19T10:33:15;3.00;;;2.80;;
5604;SDS011;9297;47.258;11.362;2023-11-19T10:35:52;2.80;;;2.60;;
5604;SDS011;9297;47.258;11.362;2023-11-19T10:38:24;3.23;;;3.03;;
5604;SDS011;9297;47.258;11.362;2023-11-19T10:40:52;4.53;;;2.83;;
5604;SDS011;9297;47.258;11.362;2023-11-19T10:43:22;3.07;;;2.77;;
5604;SDS011;9297;47.258;11.362;2023-11-19T10:45:50;3.23;;;2.53;;
5604;SDS011;9297;47.258;11.362;2023-11-19T10:48:17;2.53;;;1.87;;
5604;SDS011;9297;47.258;11.362;2023-11-19T10:50:45;2.43;;;1.93;;
5604;SDS011;9297;47.258;11.362;2023-11-19T10:53:16;2.83;;;2.47;;
5604;SDS011;9297;47.258;11.362;2023-11-19T10:55:46;2.20;;;2.00;;
5604;SDS011;9297;47.258;11.362;2023-11-19T10:58:15;2.17;;;1.93;;
5604;SDS011;9297;47.258;11.362;2023-11-19T11:00:44;1.87;;;1.77;;
5604;SDS011;9297;47.258;11.362;2023-11-19T11:03:15;1.93;;;1.83;;
5604;SDS011;9297;47.258;11.362;2023-11-19T11:05:44;1.80;;;1.70;;
5604;SDS011;9297;47.258;11.362;2023-11-19T11:08:13;2.50;;;2.03;;
5604;SDS011;9297;47.258;11.362;2023-11-19T11:10:43;4.83;;;2.30;;
5604;SDS011;9297;47.258;11.362;2023-11-19T11:13:14;3.00;;;2.60;;
5604;SDS011;9297;47.258;11.362;2023-11-19T11:15:43;2.50;;;2.20;;
5604;SDS011;9297;47.258;11.362;2023-11-19T11:18:13;2.57;;;2.33;;
5604;SDS011;9297;47.258;11.362;2023-11-19T11:20:40;2.50;;;2.30;;
5604;SDS011;9297;47.258;11.362;2023-11-19T11:23:16;3.20;;;2.70;;
5604;SDS011;9297;47.258;11.362;2023-11-19T11:26:08;3.20;;;3.00;;
5604;SDS011;9297;47.258;11.362;2023-11-19T11:28:54;2.40;;;2.27;;
5604;SDS011;9297;47.258;11.362;2023-11-19T11:31:34;2.60;;;2.40;;
5604;SDS011;9297;47.258;11.362;2023-11-19T11:34:17;2.80;;;2.60;;
5604;SDS011;9297;47.258;11.362;2023-11-19T11:37:09;2.73;;;2.50;;
5604;SDS011;9297;47.258;11.362;2023-11-19T11:39:43;3.27;;;3.07;;
5604;SDS011;9297;47.258;11.362;2023-11-19T11:45:01;2.33;;;2.13;;
5604;SDS011;9297;47.258;11.362;2023-11-19T11:50:50;2.67;;;2.40;;
5604;SDS011;9297;47.258;11.362;2023-11-19T11:53:23;2.67;;;2.50;;
5604;SDS011;9297;47.258;11.362;2023-11-19T11:55:52;3.20;;;2.90;;
5604;SDS011;9297;47.258;11.362;2023-11-19T11:58:27;2.97;;;2.60;;
5604;SDS011;9297;47.258;11.362;2023-11-19T12:00:57;3.10;;;2.90;;
5604;SDS011;9297;47.258;11.362;2023-11-19T12:03:30;2.30;;;2.10;;
5604;SDS011;9297;47.258;11.362;2023-11-19T12:05:58;2.83;;;2.63;;
5604;SDS011;9297;47.258;11.362;2023-11-19T12:08:26;2.73;;;2.50;;
5604;SDS011;9297;47.258;11.362;2023-11-19T12:10:55;5.67;;;2.47;;
5604;SDS011;9297;47.258;11.362;2023-11-19T12:13:25;2.93;;;2.73;;
5604;SDS011;9297;47.258;11.362;2023-11-19T12:16:10;3.00;;;2.80;;
5604;SDS011;9297;47.258;11.362;2023-11-19T12:18:39;3.03;;;2.83;;
5604;SDS011;9297;47.258;11.362;2023-11-19T12:21:07;2.60;;;2.50;;
5604;SDS011;9297;47.258;11.362;2023-11-19T12:23:34;3.23;;;3.03;;
5604;SDS011;9297;47.258;11.362;2023-11-19T12:26:01;3.20;;;3.00;;
5604;SDS011;9297;47.258;11.362;2023-11-19T12:28:28;3.97;;;3.57;;
5604;SDS011;9297;47.258;11.362;2023-11-19T12:31:07;3.43;;;2.83;;
5604;SDS011;9297;47.258;11.362;2023-11-19T12:33:35;3.53;;;3.20;;
5604;SDS011;9297;47.258;11.362;2023-11-19T12:36:04;3.27;;;2.97;;
5604;SDS011;9297;47.258;11.362;2023-11-19T12:38:32;3.67;;;3.00;;
5604;SDS011;9297;47.258;11.362;2023-11-19T12:41:02;4.00;;;3.27;;
5604;SDS011;9297;47.258;11.362;2023-11-19T12:43:30;4.40;;;3.73;;
5604;SDS011;9297;47.258;11.362;2023-11-19T12:45:57;3.23;;;3.03;;
5604;SDS011;9297;47.258;11.362;2023-11-19T12:48:24;3.20;;;3.00;;
5604;SDS011;9297;47.258;11.362;2023-11-19T12:50:52;3.67;;;3.37;;
5604;SDS011;9297;47.258;11.362;2023-11-19T12:53:21;3.53;;;3.33;;
5604;SDS011;9297;47.258;11.362;2023-11-19T12:55:50;3.90;;;3.60;;
5604;SDS011;9297;47.258;11.362;2023-11-19T12:58:29;3.53;;;3.23;;
5604;SDS011;9297;47.258;11.362;2023-11-19T13:01:01;3.27;;;3.07;;
5604;SDS011;9297;47.258;11.362;2023-11-19T13:03:29;3.30;;;3.00;;
5604;SDS011;9297;47.258;11.362;2023-11-19T13:06:01;3.80;;;3.50;;
5604;SDS011;9297;47.258;11.362;2023-11-19T13:08:35;4.73;;;3.90;;
5604;SDS011;9297;47.258;11.362;2023-11-19T13:11:03;4.53;;;3.93;;
5604;SDS011;9297;47.258;11.362;2023-11-19T13:13:30;3.80;;;3.50;;
5604;SDS011;9297;47.258;11.362;2023-11-19T13:16:01;3.63;;;3.20;;
5604;SDS011;9297;47.258;11.362;2023-11-19T13:18:29;3.33;;;3.03;;
5604;SDS011;9297;47.258;11.362;2023-11-19T13:20:59;4.17;;;3.70;;
5604;SDS011;9297;47.258;11.362;2023-11-19T13:23:26;3.07;;;2.87;;
5604;SDS011;9297;47.258;11.362;2023-11-19T13:25:55;3.60;;;3.30;;
5604;SDS011;9297;47.258;11.362;2023-11-19T13:28:22;3.50;;;3.20;;
5604;SDS011;9297;47.258;11.362;2023-11-19T13:30:50;3.17;;;2.80;;
5604;SDS011;9297;47.258;11.362;2023-11-19T13:33:17;3.33;;;3.03;;
5604;SDS011;9297;47.258;11.362;2023-11-19T13:35:45;2.87;;;2.67;;
5604;SDS011;9297;47.258;11.362;2023-11-19T13:38:12;3.50;;;3.20;;
5604;SDS011;9297;47.258;11.362;2023-11-19T13:40:39;4.10;;;3.30;;
5604;SDS011;9297;47.258;11.362;2023-11-19T13:43:07;4.77;;;3.40;;
5604;SDS011;9297;47.258;11.362;2023-11-19T13:45:34;3.83;;;3.43;;
5604;SDS011;9297;47.258;11.362;2023-11-19T13:48:02;3.60;;;3.23;;
5604;SDS011;9297;47.258;11.362;2023-11-19T13:50:30;3.40;;;3.20;;
5604;SDS011;9297;47.258;11.362;2023-11-19T13:52:57;4.57;;;4.13;;
5604;SDS011;9297;47.258;11.362;2023-11-19T13:55:24;4.40;;;4.00;;
5604;SDS011;9297;47.258;11.362;2023-11-19T13:57:51;5.40;;;4.27;;
5604;SDS011;9297;47.258;11.362;2023-11-19T14:00:20;5.13;;;4.23;;
5604;SDS011;9297;47.258;11.362;2023-11-19T14:02:47;5.40;;;4.40;;
5604;SDS011;9297;47.258;11.362;2023-11-19T14:05:15;5.37;;;4.73;;
5604;SDS011;9297;47.258;11.362;2023-11-19T14:07:43;7.30;;;5.37;;
5604;SDS011;9297;47.258;11.362;2023-11-19T14:10:10;10.10;;;6.13;;
5604;SDS011;9297;47.258;11.362;2023-11-19T14:12:37;8.60;;;5.73;;
5604;SDS011;9297;47.258;11.362;2023-11-19T14:15:05;8.23;;;5.90;;
5604;SDS011;9297;47.258;11.362;2023-11-19T14:17:34;6.77;;;4.57;;
5604;SDS011;9297;47.258;11.362;2023-11-19T14:20:01;5.93;;;4.40;;
5604;SDS011;9297;47.258;11.362;2023-11-19T14:22:29;6.93;;;4.97;;
5604;SDS011;9297;47.258;11.362;2023-11-19T14:24:56;5.83;;;4.40;;
5604;SDS011;9297;47.258;11.362;2023-11-19T14:27:23;5.20;;;4.70;;
5604;SDS011;9297;47.258;11.362;2023-11-19T14:29:50;5.27;;;4.77;;
5604;SDS011;9297;47.258;11.362;2023-11-19T14:32:17;4.60;;;4.10;;
5604;SDS011;9297;47.258;11.362;2023-11-19T14:34:46;4.97;;;4.47;;
5604;SDS011;9297;47.258;11.362;2023-11-19T14:37:13;4.70;;;4.30;;
5604;SDS011;9297;47.258;11.362;2023-11-19T14:39:41;4.60;;;4.03;;
5604;SDS011;9297;47.258;11.362;2023-11-19T14:42:08;4.40;;;4.00;;
5604;SDS011;9297;47.258;11.362;2023-11-19T14:44:35;7.33;;;5.23;;
5604;SDS011;9297;47.258;11.362;2023-11-19T14:47:02;6.63;;;4.50;;
5604;SDS011;9297;47.258;11.362;2023-11-19T14:49:29;5.23;;;4.73;;
5604;SDS011;9297;47.258;11.362;2023-11-19T14:51:58;5.23;;;4.73;;
5604;SDS011;9297;47.258;11.362;2023-11-19T14:54:43;4.63;;;4.23;;
5604;SDS011;9297;47.258;11.362;2023-11-19T14:57:10;5.30;;;4.80;;
5604;SDS011;9297;47.258;11.362;2023-11-19T14:59:37;5.87;;;4.70;;
5604;SDS011;9297;47.258;11.362;2023-11-19T15:02:05;5.73;;;4.90;;
5604;SDS011;9297;47.258;11.362;2023-11-19T15:04:32;5.83;;;4.53;;
5604;SDS011;9297;47.258;11.362;2023-11-19T15:07:01;5.70;;;4.63;;
5604;SDS011;9297;47.258;11.362;2023-11-19T15:09:28;5.73;;;4.53;;
5604;SDS011;9297;47.258;11.362;2023-11-19T15:11:55;7.37;;;5.03;;
5604;SDS011;9297;47.258;11.362;2023-11-19T15:14:22;5.90;;;5.17;;